sensor_id;sensor_type;location;lat;lon;timestamp;temperature;humidity
72602;DHT22;60644;55.858;37.390;2022-09-13T00:00:22;11.86;55.06
72602;DHT22;60644;55.858;37.390;2022-09-13T00:02:48;11.84;54.68
72602;DHT22;60644;55.858;37.390;2022-09-13T00:05:14;11.81;54.86
72602;DHT22;60644;55.858;37.390;2022-09-13T00:07:40;11.75;56.42
72602;DHT22;60644;55.858;37.390;2022-09-13T00:10:06;11.71;55.85
72602;DHT22;60644;55.858;37.390;2022-09-13T00:12:32;11.64;55.84
72602;DHT22;60644;55.858;37.390;2022-09-13T00:14:58;11.61;55.29
72602;DHT22;60644;55.858;37.390;2022-09-13T00:17:24;11.56;55.60
72602;DHT22;60644;55.858;37.390;2022-09-13T00:19:51;11.52;55.55
72602;DHT22;60644;55.858;37.390;2022-09-13T00:22:17;11.46;55.81
72602;DHT22;60644;55.858;37.390;2022-09-13T00:24:43;11.39;56.18
72602;DHT22;60644;55.858;37.390;2022-09-13T00:27:09;11.32;56.49
72602;DHT22;60644;55.858;37.390;2022-09-13T00:29:37;11.30;55.57
72602;DHT22;60644;55.858;37.390;2022-09-13T00:32:03;11.25;56.30
72602;DHT22;60644;55.858;37.390;2022-09-13T00:34:29;11.20;56.13
72602;DHT22;60644;55.858;37.390;2022-09-13T00:36:55;11.16;56.37
72602;DHT22;60644;55.858;37.390;2022-09-13T00:39:21;11.12;56.97
72602;DHT22;60644;55.858;37.390;2022-09-13T00:41:47;11.10;56.44
72602;DHT22;60644;55.858;37.390;2022-09-13T00:44:46;11.04;56.76
72602;DHT22;60644;55.858;37.390;2022-09-13T00:47:18;11.00;56.75
72602;DHT22;60644;55.858;37.390;2022-09-13T00:49:46;11.00;56.38
72602;DHT22;60644;55.858;37.390;2022-09-13T00:52:16;10.99;57.11
72602;DHT22;60644;55.858;37.390;2022-09-13T00:55:06;11.00;57.09
72602;DHT22;60644;55.858;37.390;2022-09-13T00:57:34;11.04;56.47
72602;DHT22;60644;55.858;37.390;2022-09-13T01:00:02;11.04;57.52
72602;DHT22;60644;55.858;37.390;2022-09-13T01:02:36;11.10;57.16
72602;DHT22;60644;55.858;37.390;2022-09-13T01:05:03;11.17;57.26
72602;DHT22;60644;55.858;37.390;2022-09-13T01:07:29;11.24;57.24
72602;DHT22;60644;55.858;37.390;2022-09-13T01:09:55;11.27;57.26
72602;DHT22;60644;55.858;37.390;2022-09-13T01:14:58;11.28;57.13
72602;DHT22;60644;55.858;37.390;2022-09-13T01:17:26;11.29;56.81
72602;DHT22;60644;55.858;37.390;2022-09-13T01:19:53;11.29;57.01
72602;DHT22;60644;55.858;37.390;2022-09-13T01:25:41;11.34;57.11
72602;DHT22;60644;55.858;37.390;2022-09-13T01:31:19;11.32;56.88
72602;DHT22;60644;55.858;37.390;2022-09-13T01:37:12;11.29;57.14
72602;DHT22;60644;55.858;37.390;2022-09-13T01:48:43;11.26;57.29
72602;DHT22;60644;55.858;37.390;2022-09-13T01:54:17;11.23;57.84
72602;DHT22;60644;55.858;37.390;2022-09-13T01:57:02;11.25;57.52
72602;DHT22;60644;55.858;37.390;2022-09-13T02:05:03;11.23;57.58
72602;DHT22;60644;55.858;37.390;2022-09-13T02:07:34;11.20;57.29
72602;DHT22;60644;55.858;37.390;2022-09-13T02:10:10;11.18;57.07
72602;DHT22;60644;55.858;37.390;2022-09-13T02:12:39;11.18;57.31
72602;DHT22;60644;55.858;37.390;2022-09-13T02:15:13;11.17;57.11
72602;DHT22;60644;55.858;37.390;2022-09-13T02:17:48;11.14;57.00
72602;DHT22;60644;55.858;37.390;2022-09-13T02:20:35;11.13;57.00
72602;DHT22;60644;55.858;37.390;2022-09-13T02:23:08;11.17;57.09
72602;DHT22;60644;55.858;37.390;2022-09-13T02:25:37;11.17;57.38
72602;DHT22;60644;55.858;37.390;2022-09-13T02:28:08;11.18;57.38
72602;DHT22;60644;55.858;37.390;2022-09-13T02:30:38;11.15;57.37
72602;DHT22;60644;55.858;37.390;2022-09-13T02:33:15;11.12;57.77
72602;DHT22;60644;55.858;37.390;2022-09-13T02:35:59;11.10;57.50
72602;DHT22;60644;55.858;37.390;2022-09-13T02:38:34;11.11;57.52
72602;DHT22;60644;55.858;37.390;2022-09-13T02:43:38;11.07;57.69
72602;DHT22;60644;55.858;37.390;2022-09-13T02:51:44;11.00;57.05
72602;DHT22;60644;55.858;37.390;2022-09-13T02:57:33;10.88;57.66
72602;DHT22;60644;55.858;37.390;2022-09-13T03:00:00;10.90;57.20
72602;DHT22;60644;55.858;37.390;2022-09-13T03:02:31;10.87;58.33
72602;DHT22;60644;55.858;37.390;2022-09-13T03:04:58;10.82;58.65
72602;DHT22;60644;55.858;37.390;2022-09-13T03:07:25;10.84;58.13
72602;DHT22;60644;55.858;37.390;2022-09-13T03:09:56;10.85;58.33
72602;DHT22;60644;55.858;37.390;2022-09-13T03:26:37;10.95;57.85
72602;DHT22;60644;55.858;37.390;2022-09-13T03:34:41;11.00;57.34
72602;DHT22;60644;55.858;37.390;2022-09-13T03:39:56;10.88;57.79
72602;DHT22;60644;55.858;37.390;2022-09-13T03:42:49;10.83;57.56
72602;DHT22;60644;55.858;37.390;2022-09-13T03:45:22;10.81;57.32
72602;DHT22;60644;55.858;37.390;2022-09-13T03:47:51;10.85;57.78
72602;DHT22;60644;55.858;37.390;2022-09-13T03:50:20;10.88;58.08
72602;DHT22;60644;55.858;37.390;2022-09-13T03:52:49;10.97;58.57
72602;DHT22;60644;55.858;37.390;2022-09-13T03:55:20;11.04;58.09
72602;DHT22;60644;55.858;37.390;2022-09-13T03:57:46;11.10;58.14
72602;DHT22;60644;55.858;37.390;2022-09-13T04:00:12;11.12;58.61
72602;DHT22;60644;55.858;37.390;2022-09-13T04:02:39;11.17;58.07
72602;DHT22;60644;55.858;37.390;2022-09-13T04:05:06;11.23;57.86
72602;DHT22;60644;55.858;37.390;2022-09-13T04:07:32;11.26;57.74
72602;DHT22;60644;55.858;37.390;2022-09-13T04:09:58;11.31;57.76
72602;DHT22;60644;55.858;37.390;2022-09-13T04:12:24;11.33;57.22
72602;DHT22;60644;55.858;37.390;2022-09-13T04:14:50;11.27;57.35
72602;DHT22;60644;55.858;37.390;2022-09-13T04:17:17;11.27;57.08
72602;DHT22;60644;55.858;37.390;2022-09-13T04:19:43;11.25;56.97
72602;DHT22;60644;55.858;37.390;2022-09-13T04:22:12;11.22;57.27
72602;DHT22;60644;55.858;37.390;2022-09-13T04:24:38;11.22;56.98
72602;DHT22;60644;55.858;37.390;2022-09-13T04:27:04;11.22;57.22
72602;DHT22;60644;55.858;37.390;2022-09-13T04:29:31;11.28;57.09
72602;DHT22;60644;55.858;37.390;2022-09-13T04:31:58;11.26;57.00
72602;DHT22;60644;55.858;37.390;2022-09-13T04:34:24;11.25;56.84
72602;DHT22;60644;55.858;37.390;2022-09-13T04:36:51;11.22;56.93
72602;DHT22;60644;55.858;37.390;2022-09-13T04:39:18;11.17;57.19
72602;DHT22;60644;55.858;37.390;2022-09-13T04:41:45;11.19;56.93
72602;DHT22;60644;55.858;37.390;2022-09-13T04:44:14;11.20;57.22
72602;DHT22;60644;55.858;37.390;2022-09-13T04:46:40;11.25;57.92
72602;DHT22;60644;55.858;37.390;2022-09-13T04:49:06;11.32;57.32
72602;DHT22;60644;55.858;37.390;2022-09-13T04:51:34;11.40;57.98
72602;DHT22;60644;55.858;37.390;2022-09-13T04:54:00;11.49;57.44
72602;DHT22;60644;55.858;37.390;2022-09-13T04:56:26;11.56;57.06
72602;DHT22;60644;55.858;37.390;2022-09-13T04:58:53;11.55;56.85
72602;DHT22;60644;55.858;37.390;2022-09-13T05:01:21;11.59;57.03
72602;DHT22;60644;55.858;37.390;2022-09-13T05:03:47;11.66;56.80
72602;DHT22;60644;55.858;37.390;2022-09-13T05:06:15;11.68;56.62
72602;DHT22;60644;55.858;37.390;2022-09-13T05:08:49;11.68;56.80
72602;DHT22;60644;55.858;37.390;2022-09-13T05:11:16;11.78;56.62
72602;DHT22;60644;55.858;37.390;2022-09-13T05:13:43;11.78;56.64
72602;DHT22;60644;55.858;37.390;2022-09-13T05:16:08;11.84;56.36
72602;DHT22;60644;55.858;37.390;2022-09-13T05:18:35;11.86;56.62
72602;DHT22;60644;55.858;37.390;2022-09-13T05:21:03;11.89;56.74
72602;DHT22;60644;55.858;37.390;2022-09-13T05:23:30;11.89;56.72
72602;DHT22;60644;55.858;37.390;2022-09-13T05:26:03;11.84;56.81
72602;DHT22;60644;55.858;37.390;2022-09-13T05:28:32;11.87;57.05
72602;DHT22;60644;55.858;37.390;2022-09-13T05:31:01;11.96;56.84
72602;DHT22;60644;55.858;37.390;2022-09-13T05:33:30;12.04;56.87
72602;DHT22;60644;55.858;37.390;2022-09-13T05:35:56;12.15;56.48
72602;DHT22;60644;55.858;37.390;2022-09-13T05:38:23;12.19;56.42
72602;DHT22;60644;55.858;37.390;2022-09-13T05:40:56;12.26;56.03
72602;DHT22;60644;55.858;37.390;2022-09-13T05:43:25;12.28;56.00
72602;DHT22;60644;55.858;37.390;2022-09-13T05:48:28;12.25;56.32
72602;DHT22;60644;55.858;37.390;2022-09-13T05:50:54;12.26;56.18
72602;DHT22;60644;55.858;37.390;2022-09-13T05:53:20;12.28;55.90
72602;DHT22;60644;55.858;37.390;2022-09-13T05:55:45;12.22;56.07
72602;DHT22;60644;55.858;37.390;2022-09-13T05:58:11;12.21;56.07
72602;DHT22;60644;55.858;37.390;2022-09-13T06:00:37;12.19;56.04
72602;DHT22;60644;55.858;37.390;2022-09-13T06:03:03;12.22;56.30
72602;DHT22;60644;55.858;37.390;2022-09-13T06:05:29;12.26;55.79
72602;DHT22;60644;55.858;37.390;2022-09-13T06:07:55;12.22;55.78
72602;DHT22;60644;55.858;37.390;2022-09-13T06:10:21;12.21;55.74
72602;DHT22;60644;55.858;37.390;2022-09-13T06:12:49;12.25;56.05
72602;DHT22;60644;55.858;37.390;2022-09-13T06:15:15;12.27;55.80
72602;DHT22;60644;55.858;37.390;2022-09-13T06:17:41;12.20;55.61
72602;DHT22;60644;55.858;37.390;2022-09-13T06:20:07;12.13;55.65
72602;DHT22;60644;55.858;37.390;2022-09-13T06:22:34;12.11;55.73
72602;DHT22;60644;55.858;37.390;2022-09-13T06:25:00;12.08;55.83
72602;DHT22;60644;55.858;37.390;2022-09-13T06:27:28;12.07;55.61
72602;DHT22;60644;55.858;37.390;2022-09-13T06:29:54;12.02;55.81
72602;DHT22;60644;55.858;37.390;2022-09-13T06:32:20;12.01;55.72
72602;DHT22;60644;55.858;37.390;2022-09-13T06:34:46;12.05;55.79
72602;DHT22;60644;55.858;37.390;2022-09-13T06:37:12;12.10;55.72
72602;DHT22;60644;55.858;37.390;2022-09-13T06:39:38;12.16;55.69
72602;DHT22;60644;55.858;37.390;2022-09-13T06:42:04;12.22;55.73
72602;DHT22;60644;55.858;37.390;2022-09-13T06:44:38;12.32;55.52
72602;DHT22;60644;55.858;37.390;2022-09-13T06:47:04;12.35;55.43
72602;DHT22;60644;55.858;37.390;2022-09-13T06:49:30;12.37;55.73
72602;DHT22;60644;55.858;37.390;2022-09-13T06:51:56;12.46;55.29
72602;DHT22;60644;55.858;37.390;2022-09-13T06:54:22;12.53;55.36
72602;DHT22;60644;55.858;37.390;2022-09-13T06:56:48;12.61;55.04
72602;DHT22;60644;55.858;37.390;2022-09-13T06:59:14;12.60;55.04
72602;DHT22;60644;55.858;37.390;2022-09-13T07:01:41;12.61;54.95
72602;DHT22;60644;55.858;37.390;2022-09-13T07:04:10;12.65;54.81
72602;DHT22;60644;55.858;37.390;2022-09-13T07:06:41;12.63;54.70
72602;DHT22;60644;55.858;37.390;2022-09-13T07:09:10;12.66;54.66
72602;DHT22;60644;55.858;37.390;2022-09-13T07:11:39;12.71;54.55
72602;DHT22;60644;55.858;37.390;2022-09-13T07:14:06;12.77;54.59
72602;DHT22;60644;55.858;37.390;2022-09-13T07:16:35;12.84;54.46
72602;DHT22;60644;55.858;37.390;2022-09-13T07:19:04;12.92;54.34
72602;DHT22;60644;55.858;37.390;2022-09-13T07:21:31;12.97;54.26
72602;DHT22;60644;55.858;37.390;2022-09-13T07:23:57;13.00;54.01
72602;DHT22;60644;55.858;37.390;2022-09-13T07:26:25;13.03;54.07
72602;DHT22;60644;55.858;37.390;2022-09-13T07:28:56;13.04;53.88
72602;DHT22;60644;55.858;37.390;2022-09-13T07:33:55;13.19;53.59
72602;DHT22;60644;55.858;37.390;2022-09-13T07:36:22;13.22;53.65
72602;DHT22;60644;55.858;37.390;2022-09-13T07:38:48;13.24;53.56
72602;DHT22;60644;55.858;37.390;2022-09-13T07:41:20;13.31;53.69
72602;DHT22;60644;55.858;37.390;2022-09-13T07:43:46;13.34;53.23
72602;DHT22;60644;55.858;37.390;2022-09-13T07:46:15;13.43;52.59
72602;DHT22;60644;55.858;37.390;2022-09-13T07:48:43;13.51;52.85
72602;DHT22;60644;55.858;37.390;2022-09-13T07:51:15;13.62;52.72
72602;DHT22;60644;55.858;37.390;2022-09-13T07:53:43;13.79;51.77
72602;DHT22;60644;55.858;37.390;2022-09-13T07:56:11;13.96;51.66
72602;DHT22;60644;55.858;37.390;2022-09-13T07:58:38;14.17;52.33
72602;DHT22;60644;55.858;37.390;2022-09-13T08:01:25;14.29;51.82
72602;DHT22;60644;55.858;37.390;2022-09-13T08:04:00;14.34;50.90
72602;DHT22;60644;55.858;37.390;2022-09-13T08:06:28;14.44;51.01
72602;DHT22;60644;55.858;37.390;2022-09-13T08:08:55;14.57;50.37
72602;DHT22;60644;55.858;37.390;2022-09-13T08:11:32;14.66;51.45
72602;DHT22;60644;55.858;37.390;2022-09-13T08:13:58;14.56;49.40
72602;DHT22;60644;55.858;37.390;2022-09-13T08:16:26;14.65;50.08
72602;DHT22;60644;55.858;37.390;2022-09-13T08:18:54;14.67;49.11
72602;DHT22;60644;55.858;37.390;2022-09-13T08:21:21;14.63;50.06
72602;DHT22;60644;55.858;37.390;2022-09-13T08:23:48;14.57;49.43
72602;DHT22;60644;55.858;37.390;2022-09-13T08:26:15;14.50;49.05
72602;DHT22;60644;55.858;37.390;2022-09-13T08:28:42;14.49;49.44
72602;DHT22;60644;55.858;37.390;2022-09-13T08:31:14;14.54;48.84
72602;DHT22;60644;55.858;37.390;2022-09-13T08:33:46;14.62;49.53
72602;DHT22;60644;55.858;37.390;2022-09-13T08:36:14;14.72;49.46
72602;DHT22;60644;55.858;37.390;2022-09-13T08:38:47;14.82;49.85
72602;DHT22;60644;55.858;37.390;2022-09-13T08:46:34;14.77;48.02
72602;DHT22;60644;55.858;37.390;2022-09-13T08:49:10;14.82;48.09
72602;DHT22;60644;55.858;37.390;2022-09-13T08:51:55;14.86;47.15
72602;DHT22;60644;55.858;37.390;2022-09-13T08:54:23;14.97;48.32
72602;DHT22;60644;55.858;37.390;2022-09-13T08:57:14;15.03;46.06
72602;DHT22;60644;55.858;37.390;2022-09-13T09:05:05;15.23;46.14
72602;DHT22;60644;55.858;37.390;2022-09-13T09:07:41;15.24;46.83
72602;DHT22;60644;55.858;37.390;2022-09-13T09:10:28;15.31;45.82
72602;DHT22;60644;55.858;37.390;2022-09-13T09:12:58;15.38;46.27
72602;DHT22;60644;55.858;37.390;2022-09-13T09:15:34;15.42;45.12
72602;DHT22;60644;55.858;37.390;2022-09-13T09:20:40;15.55;44.37
72602;DHT22;60644;55.858;37.390;2022-09-13T09:23:13;15.57;44.54
72602;DHT22;60644;55.858;37.390;2022-09-13T09:25:40;15.65;45.75
72602;DHT22;60644;55.858;37.390;2022-09-13T09:28:14;15.66;47.45
72602;DHT22;60644;55.858;37.390;2022-09-13T09:34:02;15.63;46.15
72602;DHT22;60644;55.858;37.390;2022-09-13T09:36:39;15.63;45.11
72602;DHT22;60644;55.858;37.390;2022-09-13T09:39:13;15.73;44.41
72602;DHT22;60644;55.858;37.390;2022-09-13T09:41:42;15.80;44.37
72602;DHT22;60644;55.858;37.390;2022-09-13T09:44:20;15.84;43.56
72602;DHT22;60644;55.858;37.390;2022-09-13T09:52:47;16.31;44.36
72602;DHT22;60644;55.858;37.390;2022-09-13T09:55:55;16.41;42.57
72602;DHT22;60644;55.858;37.390;2022-09-13T09:58:13;16.43;40.52
72602;DHT22;60644;55.858;37.390;2022-09-13T10:00:52;16.48;40.88
72602;DHT22;60644;55.858;37.390;2022-09-13T10:03:23;16.49;43.19
72602;DHT22;60644;55.858;37.390;2022-09-13T10:06:10;16.54;43.10
72602;DHT22;60644;55.858;37.390;2022-09-13T10:08:40;16.50;41.36
72602;DHT22;60644;55.858;37.390;2022-09-13T10:11:07;16.46;42.95
72602;DHT22;60644;55.858;37.390;2022-09-13T10:13:34;16.41;42.16
72602;DHT22;60644;55.858;37.390;2022-09-13T10:16:04;16.39;41.82
72602;DHT22;60644;55.858;37.390;2022-09-13T10:18:34;16.41;42.96
72602;DHT22;60644;55.858;37.390;2022-09-13T10:21:06;16.36;42.29
72602;DHT22;60644;55.858;37.390;2022-09-13T10:23:34;16.33;42.27
72602;DHT22;60644;55.858;37.390;2022-09-13T10:28:32;16.34;44.13
72602;DHT22;60644;55.858;37.390;2022-09-13T10:31:07;16.34;42.90
72602;DHT22;60644;55.858;37.390;2022-09-13T10:33:39;16.35;43.93
72602;DHT22;60644;55.858;37.390;2022-09-13T10:36:23;16.31;43.54
72602;DHT22;60644;55.858;37.390;2022-09-13T10:39:04;16.24;42.41
72602;DHT22;60644;55.858;37.390;2022-09-13T10:41:38;16.19;42.79
72602;DHT22;60644;55.858;37.390;2022-09-13T10:47:00;16.08;44.80
72602;DHT22;60644;55.858;37.390;2022-09-13T10:49:46;15.96;43.04
72602;DHT22;60644;55.858;37.390;2022-09-13T10:52:37;15.86;43.03
72602;DHT22;60644;55.858;37.390;2022-09-13T10:57:46;15.81;45.40
72602;DHT22;60644;55.858;37.390;2022-09-13T11:09:15;15.66;42.57
72602;DHT22;60644;55.858;37.390;2022-09-13T11:15:36;15.61;43.92
72602;DHT22;60644;55.858;37.390;2022-09-13T11:24:37;15.46;44.08
72602;DHT22;60644;55.858;37.390;2022-09-13T11:32:36;15.55;43.80
72602;DHT22;60644;55.858;37.390;2022-09-13T11:35:25;15.54;44.69
72602;DHT22;60644;55.858;37.390;2022-09-13T11:54:13;15.57;45.43
72602;DHT22;60644;55.858;37.390;2022-09-13T11:56:46;15.60;45.64
72602;DHT22;60644;55.858;37.390;2022-09-13T12:01:56;15.53;45.11
72602;DHT22;60644;55.858;37.390;2022-09-13T12:04:33;15.53;45.33
72602;DHT22;60644;55.858;37.390;2022-09-13T12:07:09;15.52;45.11
72602;DHT22;60644;55.858;37.390;2022-09-13T12:09:41;15.45;45.45
72602;DHT22;60644;55.858;37.390;2022-09-13T12:12:11;15.49;45.54
72602;DHT22;60644;55.858;37.390;2022-09-13T12:14:54;15.45;44.96
72602;DHT22;60644;55.858;37.390;2022-09-13T12:17:38;15.44;45.32
72602;DHT22;60644;55.858;37.390;2022-09-13T12:20:19;15.47;45.60
72602;DHT22;60644;55.858;37.390;2022-09-13T12:22:49;15.48;45.12
72602;DHT22;60644;55.858;37.390;2022-09-13T12:25:24;15.45;45.14
72602;DHT22;60644;55.858;37.390;2022-09-13T12:28:07;15.43;45.18
72602;DHT22;60644;55.858;37.390;2022-09-13T12:31:10;15.43;45.50
72602;DHT22;60644;55.858;37.390;2022-09-13T12:33:39;15.43;45.56
72602;DHT22;60644;55.858;37.390;2022-09-13T12:47:39;15.43;45.16
72602;DHT22;60644;55.858;37.390;2022-09-13T12:50:28;15.43;44.77
72602;DHT22;60644;55.858;37.390;2022-09-13T12:53:35;15.41;44.09
72602;DHT22;60644;55.858;37.390;2022-09-13T13:02:02;15.43;43.53
72602;DHT22;60644;55.858;37.390;2022-09-13T13:04:35;15.41;43.66
72602;DHT22;60644;55.858;37.390;2022-09-13T13:07:05;15.40;46.12
72602;DHT22;60644;55.858;37.390;2022-09-13T13:10:00;15.37;43.95
72602;DHT22;60644;55.858;37.390;2022-09-13T13:12:35;15.38;44.79
72602;DHT22;60644;55.858;37.390;2022-09-13T13:17:48;15.36;44.06
72602;DHT22;60644;55.858;37.390;2022-09-13T13:41:53;15.30;44.70
72602;DHT22;60644;55.858;37.390;2022-09-13T13:46:47;15.29;45.08
72602;DHT22;60644;55.858;37.390;2022-09-13T13:53:00;15.27;44.19
72602;DHT22;60644;55.858;37.390;2022-09-13T13:55:40;15.31;45.10
72602;DHT22;60644;55.858;37.390;2022-09-13T13:58:30;15.30;44.95
72602;DHT22;60644;55.858;37.390;2022-09-13T14:01:00;15.29;44.95
72602;DHT22;60644;55.858;37.390;2022-09-13T14:14:41;15.26;44.77
72602;DHT22;60644;55.858;37.390;2022-09-13T14:19:49;15.30;45.12
72602;DHT22;60644;55.858;37.390;2022-09-13T14:24:47;15.27;45.37
72602;DHT22;60644;55.858;37.390;2022-09-13T14:27:23;15.25;45.67
72602;DHT22;60644;55.858;37.390;2022-09-13T14:29:53;15.23;44.27
72602;DHT22;60644;55.858;37.390;2022-09-13T14:32:28;15.23;44.13
72602;DHT22;60644;55.858;37.390;2022-09-13T14:34:58;15.23;44.64
72602;DHT22;60644;55.858;37.390;2022-09-13T14:37:34;15.24;44.00
72602;DHT22;60644;55.858;37.390;2022-09-13T14:42:47;15.26;44.75
72602;DHT22;60644;55.858;37.390;2022-09-13T14:50:18;15.29;43.23
72602;DHT22;60644;55.858;37.390;2022-09-13T14:53:05;15.31;44.66
72602;DHT22;60644;55.858;37.390;2022-09-13T14:55:36;15.32;43.67
72602;DHT22;60644;55.858;37.390;2022-09-13T14:58:12;15.31;45.12
72602;DHT22;60644;55.858;37.390;2022-09-13T15:03:17;15.28;44.38
72602;DHT22;60644;55.858;37.390;2022-09-13T15:05:52;15.25;44.95
72602;DHT22;60644;55.858;37.390;2022-09-13T15:10:57;15.21;44.54
72602;DHT22;60644;55.858;37.390;2022-09-13T15:13:23;15.19;43.84
72602;DHT22;60644;55.858;37.390;2022-09-13T15:15:49;15.19;44.88
72602;DHT22;60644;55.858;37.390;2022-09-13T15:21:16;15.22;44.73
72602;DHT22;60644;55.858;37.390;2022-09-13T15:23:49;15.25;45.09
72602;DHT22;60644;55.858;37.390;2022-09-13T15:26:24;15.23;44.12
72602;DHT22;60644;55.858;37.390;2022-09-13T15:28:55;15.19;44.78
72602;DHT22;60644;55.858;37.390;2022-09-13T15:31:23;15.14;45.03
72602;DHT22;60644;55.858;37.390;2022-09-13T15:39:26;15.03;45.19
72602;DHT22;60644;55.858;37.390;2022-09-13T15:41:59;15.04;44.90
72602;DHT22;60644;55.858;37.390;2022-09-13T15:44:27;15.06;45.16
72602;DHT22;60644;55.858;37.390;2022-09-13T15:46:59;15.06;45.00
72602;DHT22;60644;55.858;37.390;2022-09-13T15:49:27;15.06;44.96
72602;DHT22;60644;55.858;37.390;2022-09-13T15:51:55;15.02;45.22
72602;DHT22;60644;55.858;37.390;2022-09-13T15:54:30;15.02;45.19
72602;DHT22;60644;55.858;37.390;2022-09-13T15:56:58;15.03;45.34
72602;DHT22;60644;55.858;37.390;2022-09-13T15:59:24;15.07;45.47
72602;DHT22;60644;55.858;37.390;2022-09-13T16:01:51;15.03;44.51
72602;DHT22;60644;55.858;37.390;2022-09-13T16:04:18;15.02;45.97
72602;DHT22;60644;55.858;37.390;2022-09-13T16:06:47;15.01;45.17
72602;DHT22;60644;55.858;37.390;2022-09-13T16:09:19;15.00;45.19
72602;DHT22;60644;55.858;37.390;2022-09-13T16:11:47;15.00;45.69
72602;DHT22;60644;55.858;37.390;2022-09-13T16:14:13;14.98;45.10
72602;DHT22;60644;55.858;37.390;2022-09-13T16:16:40;14.99;45.57
72602;DHT22;60644;55.858;37.390;2022-09-13T16:19:16;14.97;45.26
72602;DHT22;60644;55.858;37.390;2022-09-13T16:21:43;14.97;45.54
72602;DHT22;60644;55.858;37.390;2022-09-13T16:24:09;14.98;45.51
72602;DHT22;60644;55.858;37.390;2022-09-13T16:26:35;14.98;45.59
72602;DHT22;60644;55.858;37.390;2022-09-13T16:29:01;15.00;45.32
72602;DHT22;60644;55.858;37.390;2022-09-13T16:31:27;14.93;45.29
72602;DHT22;60644;55.858;37.390;2022-09-13T16:33:53;14.93;45.72
72602;DHT22;60644;55.858;37.390;2022-09-13T16:36:19;14.87;45.89
72602;DHT22;60644;55.858;37.390;2022-09-13T16:38:45;14.82;45.78
72602;DHT22;60644;55.858;37.390;2022-09-13T16:41:10;14.73;46.41
72602;DHT22;60644;55.858;37.390;2022-09-13T16:43:36;14.69;46.92
72602;DHT22;60644;55.858;37.390;2022-09-13T16:46:09;14.69;47.13
72602;DHT22;60644;55.858;37.390;2022-09-13T16:48:36;14.66;47.76
72602;DHT22;60644;55.858;37.390;2022-09-13T16:51:09;14.60;47.81
72602;DHT22;60644;55.858;37.390;2022-09-13T16:53:40;14.59;48.00
72602;DHT22;60644;55.858;37.390;2022-09-13T16:56:14;14.56;47.86
72602;DHT22;60644;55.858;37.390;2022-09-13T16:58:44;14.54;48.12
72602;DHT22;60644;55.858;37.390;2022-09-13T17:01:18;14.54;48.34
72602;DHT22;60644;55.858;37.390;2022-09-13T17:03:44;14.53;48.27
72602;DHT22;60644;55.858;37.390;2022-09-13T17:06:14;14.55;48.49
72602;DHT22;60644;55.858;37.390;2022-09-13T17:08:45;14.58;48.53
72602;DHT22;60644;55.858;37.390;2022-09-13T17:11:14;14.58;48.42
72602;DHT22;60644;55.858;37.390;2022-09-13T17:13:40;14.58;48.52
72602;DHT22;60644;55.858;37.390;2022-09-13T17:16:25;14.52;49.13
72602;DHT22;60644;55.858;37.390;2022-09-13T17:18:51;14.49;48.81
72602;DHT22;60644;55.858;37.390;2022-09-13T17:21:18;14.47;49.05
72602;DHT22;60644;55.858;37.390;2022-09-13T17:23:44;14.40;48.90
72602;DHT22;60644;55.858;37.390;2022-09-13T17:26:10;14.35;49.17
72602;DHT22;60644;55.858;37.390;2022-09-13T17:28:36;14.29;50.02
72602;DHT22;60644;55.858;37.390;2022-09-13T17:31:03;14.30;49.34
72602;DHT22;60644;55.858;37.390;2022-09-13T17:33:29;14.30;49.33
72602;DHT22;60644;55.858;37.390;2022-09-13T17:36:03;14.28;49.38
72602;DHT22;60644;55.858;37.390;2022-09-13T17:38:30;14.26;49.55
72602;DHT22;60644;55.858;37.390;2022-09-13T17:41:16;14.29;49.44
72602;DHT22;60644;55.858;37.390;2022-09-13T17:43:44;14.28;49.50
72602;DHT22;60644;55.858;37.390;2022-09-13T17:46:19;14.29;50.22
72602;DHT22;60644;55.858;37.390;2022-09-13T17:48:52;14.34;49.63
72602;DHT22;60644;55.858;37.390;2022-09-13T17:51:20;14.35;49.95
72602;DHT22;60644;55.858;37.390;2022-09-13T17:53:49;14.32;50.07
72602;DHT22;60644;55.858;37.390;2022-09-13T17:56:17;14.19;50.11
72602;DHT22;60644;55.858;37.390;2022-09-13T17:58:44;14.09;51.48
72602;DHT22;60644;55.858;37.390;2022-09-13T18:01:10;14.03;51.56
72602;DHT22;60644;55.858;37.390;2022-09-13T18:03:37;14.00;51.04
72602;DHT22;60644;55.858;37.390;2022-09-13T18:06:05;13.96;50.95
72602;DHT22;60644;55.858;37.390;2022-09-13T18:08:34;13.93;51.18
72602;DHT22;60644;55.858;37.390;2022-09-13T18:11:11;13.93;52.65
72602;DHT22;60644;55.858;37.390;2022-09-13T18:13:38;13.96;51.69
72602;DHT22;60644;55.858;37.390;2022-09-13T18:16:10;13.91;53.62
72602;DHT22;60644;55.858;37.390;2022-09-13T18:18:37;13.82;52.22
72602;DHT22;60644;55.858;37.390;2022-09-13T18:21:04;13.81;53.07
72602;DHT22;60644;55.858;37.390;2022-09-13T18:23:32;13.83;52.88
72602;DHT22;60644;55.858;37.390;2022-09-13T18:26:07;13.86;53.69
72602;DHT22;60644;55.858;37.390;2022-09-13T18:28:34;13.82;55.07
72602;DHT22;60644;55.858;37.390;2022-09-13T18:31:02;13.81;53.58
72602;DHT22;60644;55.858;37.390;2022-09-13T18:33:31;13.82;53.20
72602;DHT22;60644;55.858;37.390;2022-09-13T18:36:05;13.84;55.00
72602;DHT22;60644;55.858;37.390;2022-09-13T18:38:38;13.86;54.05
72602;DHT22;60644;55.858;37.390;2022-09-13T18:41:12;13.85;54.93
72602;DHT22;60644;55.858;37.390;2022-09-13T18:43:40;13.79;53.81
72602;DHT22;60644;55.858;37.390;2022-09-13T18:46:18;13.66;54.07
72602;DHT22;60644;55.858;37.390;2022-09-13T18:48:47;13.59;54.84
72602;DHT22;60644;55.858;37.390;2022-09-13T18:51:20;13.56;54.74
72602;DHT22;60644;55.858;37.390;2022-09-13T18:53:47;13.55;56.79
72602;DHT22;60644;55.858;37.390;2022-09-13T18:56:15;13.48;57.73
72602;DHT22;60644;55.858;37.390;2022-09-13T18:58:43;13.44;55.87
72602;DHT22;60644;55.858;37.390;2022-09-13T19:01:13;13.43;55.13
72602;DHT22;60644;55.858;37.390;2022-09-13T19:03:51;13.31;58.58
72602;DHT22;60644;55.858;37.390;2022-09-13T19:06:24;13.18;59.22
72602;DHT22;60644;55.858;37.390;2022-09-13T19:08:51;13.07;58.43
72602;DHT22;60644;55.858;37.390;2022-09-13T19:11:22;13.02;58.85
72602;DHT22;60644;55.858;37.390;2022-09-13T19:13:48;12.99;59.19
72602;DHT22;60644;55.858;37.390;2022-09-13T19:16:16;12.93;59.43
72602;DHT22;60644;55.858;37.390;2022-09-13T19:18:44;12.93;60.27
72602;DHT22;60644;55.858;37.390;2022-09-13T19:23:46;12.91;60.22
72602;DHT22;60644;55.858;37.390;2022-09-13T19:26:18;12.90;57.00